createdAt,value
2022-11-05T00:01:20.183Z,12.18
2022-11-05T00:04:08.103Z,13.18
2022-11-05T00:06:55.285Z,13.55
2022-11-05T00:09:29.890Z,13.60
2022-11-05T00:12:27.140Z,12.40
2022-11-05T00:15:16.612Z,12.88
2022-11-05T00:17:47.995Z,11.85
2022-11-05T00:20:18.094Z,12.50
2022-11-05T00:23:06.078Z,12.52
2022-11-05T00:25:34.820Z,11.95
2022-11-05T00:28:05.804Z,13.15
2022-11-05T00:30:40.432Z,12.02
2022-11-05T00:33:11.880Z,12.98
2022-11-05T00:35:50.772Z,13.30
2022-11-05T00:38:28.959Z,12.57
2022-11-05T00:41:02.507Z,13.27
2022-11-05T00:43:52.732Z,12.00
2022-11-05T00:46:24.748Z,13.00
2022-11-05T00:49:16.754Z,13.93
2022-11-05T00:51:45.545Z,12.73
2022-11-05T00:54:17.784Z,13.68
2022-11-05T00:56:47.756Z,14.80
2022-11-05T00:59:17.885Z,14.70
2022-11-05T01:01:52.442Z,15.55
2022-11-05T01:04:21.827Z,15.38
2022-11-05T01:06:53.375Z,13.65
2022-11-05T01:09:23.651Z,13.38
2022-11-05T01:11:52.909Z,14.73
2022-11-05T01:14:23.368Z,14.30
2022-11-05T01:16:52.951Z,13.23
2022-11-05T01:19:23.256Z,14.60
2022-11-05T01:21:51.771Z,15.25
2022-11-05T01:24:20.376Z,14.15
2022-11-05T01:26:48.598Z,16.15
2022-11-05T01:29:18.034Z,18.42
2022-11-05T01:31:47.200Z,18.02
2022-11-05T01:34:18.093Z,16.55
2022-11-05T01:36:49.025Z,17.20
2022-11-05T01:39:17.935Z,17.98
2022-11-05T01:41:45.980Z,19.60
2022-11-05T01:44:56.294Z,19.23
2022-11-05T01:47:33.714Z,19.70
2022-11-05T01:50:28.410Z,19.13
2022-11-05T01:53:27.060Z,17.70
2022-11-05T01:56:01.665Z,20.35
2022-11-05T01:58:34.768Z,18.58
2022-11-05T02:01:03.349Z,20.73
2022-11-05T02:03:31.954Z,19.35
2022-11-05T02:06:04.152Z,19.75
2022-11-05T02:08:46.930Z,21.08
2022-11-05T02:11:28.071Z,21.98
2022-11-05T02:13:59.655Z,20.50
2022-11-05T02:16:59.455Z,19.58
2022-11-05T02:19:54.634Z,20.27
2022-11-05T02:23:26.630Z,22.10
2022-11-05T02:25:58.185Z,19.42
2022-11-05T02:28:51.491Z,20.77
2022-11-05T02:31:44.550Z,20.70
2022-11-05T02:34:51.910Z,22.90
2022-11-05T02:37:52.832Z,22.70
2022-11-05T02:40:34.501Z,21.85
2022-11-05T02:43:34.531Z,26.10
2022-11-05T02:46:20.634Z,22.50
2022-11-05T02:48:50.952Z,22.42
2022-11-05T02:52:04.128Z,26.00
2022-11-05T02:54:57.904Z,25.35
2022-11-05T02:57:29.893Z,24.58
2022-11-05T03:00:28.334Z,25.42
2022-11-05T03:03:02.526Z,24.90
2022-11-05T03:05:45.742Z,28.40
2022-11-05T03:08:31.880Z,27.10
2022-11-05T03:11:15.876Z,27.65
2022-11-05T03:14:00.166Z,26.42
2022-11-05T03:16:43.191Z,29.25
2022-11-05T03:19:27.433Z,32.75
2022-11-05T03:22:03.174Z,31.33
2022-11-05T03:24:39.182Z,31.92
2022-11-05T03:27:15.594Z,27.63
2022-11-05T03:29:54.267Z,31.80
2022-11-05T03:32:30.756Z,31.25
2022-11-05T03:35:18.878Z,28.45
2022-11-05T03:37:56.684Z,29.63
2022-11-05T03:40:26.750Z,29.02
2022-11-05T03:43:02.133Z,29.20
2022-11-05T03:45:58.487Z,28.95
2022-11-05T03:48:37.454Z,31.35
2022-11-05T03:51:39.594Z,35.70
2022-11-05T03:54:08.255Z,31.65
2022-11-05T03:56:45.856Z,31.35
2022-11-05T03:59:14.793Z,33.80
2022-11-05T04:01:44.977Z,34.28
2022-11-05T04:04:18.123Z,31.92
2022-11-05T04:07:05.638Z,31.67
2022-11-05T04:09:53.032Z,29.65
2022-11-05T04:12:40.910Z,32.25
2022-11-05T04:15:09.466Z,33.35
2022-11-05T04:17:45.679Z,32.47
2022-11-05T04:20:41.922Z,30.73
2022-11-05T04:23:29.963Z,31.95
2022-11-05T04:25:57.991Z,32.50
2022-11-05T04:28:47.479Z,32.95
2022-11-05T04:31:18.529Z,34.55
2022-11-05T04:33:47.424Z,32.67
2022-11-05T04:36:18.497Z,36.20
2022-11-05T04:38:47.711Z,32.58
2022-11-05T04:41:17.643Z,34.65
2022-11-05T04:43:55.497Z,35.72
2022-11-05T04:46:33.870Z,35.85
2022-11-05T04:49:05.149Z,36.33
2022-11-05T04:51:34.256Z,36.53
2022-11-05T04:54:03.406Z,36.42
2022-11-05T04:56:33.412Z,38.10
2022-11-05T04:59:03.969Z,37.85
2022-11-05T05:01:34.109Z,38.63
2022-11-05T05:04:06.495Z,39.75
2022-11-05T05:06:39.748Z,38.42
2022-11-05T05:09:10.100Z,39.90
2022-11-05T05:11:38.438Z,38.65
2022-11-05T05:14:18.749Z,40.47
2022-11-05T05:16:50.118Z,44.72
2022-11-05T05:19:22.959Z,43.08
2022-11-05T05:21:58.890Z,41.05
2022-11-05T05:24:34.953Z,42.05
2022-11-05T05:27:04.159Z,44.20
2022-11-05T05:32:25.606Z,39.25
2022-11-05T05:34:55.937Z,40.17
2022-11-05T05:37:26.185Z,40.67
2022-11-05T05:39:55.468Z,40.78
2022-11-05T05:42:26.707Z,37.15
2022-11-05T05:44:55.443Z,38.35
2022-11-05T05:47:26.822Z,41.28
2022-11-05T05:49:56.046Z,38.05
2022-11-05T05:52:26.859Z,37.88
2022-11-05T05:55:07.180Z,38.03
2022-11-05T05:57:42.981Z,38.92
2022-11-05T06:00:14.876Z,36.63
2022-11-05T06:02:45.117Z,39.00
2022-11-05T06:05:19.114Z,38.53
2022-11-05T06:07:59.254Z,39.33
2022-11-05T06:10:31.006Z,34.75
2022-11-05T06:13:12.230Z,39.95
2022-11-05T06:15:45.203Z,36.47
2022-11-05T06:18:13.800Z,36.85
2022-11-05T06:20:42.628Z,41.80
2022-11-05T06:23:17.588Z,39.70
2022-11-05T06:25:50.557Z,40.38
2022-11-05T06:28:31.108Z,43.70
2022-11-05T06:31:01.047Z,44.08
2022-11-05T06:33:30.751Z,38.08
2022-11-05T06:36:00.779Z,38.95
2022-11-05T06:38:33.312Z,42.83
2022-11-05T06:41:10.029Z,42.38
2022-11-05T06:43:41.977Z,40.22
2022-11-05T06:46:13.163Z,40.70
2022-11-05T06:48:44.201Z,40.58
2022-11-05T06:51:12.519Z,43.50
2022-11-05T06:53:46.645Z,42.25
2022-11-05T06:56:15.501Z,43.10
2022-11-05T06:58:44.711Z,45.65
2022-11-05T07:01:13.647Z,45.72
2022-11-05T07:03:44.502Z,44.50
2022-11-05T07:06:16.376Z,51.28
2022-11-05T07:08:44.448Z,55.03
2022-11-05T07:11:13.533Z,44.90
2022-11-05T07:13:42.025Z,47.63
2022-11-05T07:16:11.377Z,39.55
2022-11-05T07:18:40.449Z,37.53
2022-11-05T07:21:08.714Z,44.50
2022-11-05T07:23:39.059Z,42.40
2022-11-05T07:26:10.289Z,41.55
2022-11-05T07:28:46.057Z,41.03
2022-11-05T07:31:14.919Z,40.47
2022-11-05T07:33:46.857Z,41.08
2022-11-05T07:36:26.637Z,42.83
2022-11-05T07:39:00.099Z,41.13
2022-11-05T07:41:30.210Z,45.20
2022-11-05T07:43:58.478Z,44.75
2022-11-05T07:49:04.207Z,46.72
2022-11-05T07:51:33.958Z,46.17
2022-11-05T07:54:06.054Z,44.08
2022-11-05T07:56:34.823Z,43.90
2022-11-05T07:59:03.506Z,43.42
2022-11-05T08:01:33.458Z,43.15
2022-11-05T08:04:02.650Z,42.28
2022-11-05T08:06:33.202Z,44.22
2022-11-05T08:09:04.166Z,43.63
2022-11-05T08:11:40.087Z,45.10
2022-11-05T08:14:10.465Z,42.95
2022-11-05T08:16:42.942Z,45.70
2022-11-05T08:19:17.525Z,40.72
2022-11-05T08:21:47.713Z,40.42
2022-11-05T08:24:17.217Z,46.17
2022-11-05T08:26:53.665Z,49.22
2022-11-05T08:29:24.102Z,40.58
2022-11-05T08:31:57.523Z,52.45
2022-11-05T08:34:28.693Z,49.40
2022-11-05T08:37:01.860Z,44.88
2022-11-05T08:39:30.078Z,40.25
2022-11-05T08:42:00.155Z,40.53
2022-11-05T08:44:30.599Z,48.70
2022-11-05T08:47:05.022Z,44.00
2022-11-05T08:49:43.454Z,38.20
2022-11-05T08:52:13.554Z,39.28
2022-11-05T08:54:48.074Z,38.35
2022-11-05T08:57:30.119Z,36.22
2022-11-05T09:00:01.959Z,35.97
2022-11-05T09:02:32.907Z,48.05
2022-11-05T09:05:03.353Z,40.10
2022-11-05T09:07:33.822Z,40.15
2022-11-05T09:10:05.978Z,75.43
2022-11-05T09:12:39.559Z,37.28
2022-11-05T09:15:09.715Z,46.30
2022-11-05T09:17:38.116Z,38.90
2022-11-05T09:20:11.297Z,30.15
2022-11-05T09:22:49.211Z,35.80
2022-11-05T09:25:27.330Z,29.10
2022-11-05T09:28:17.629Z,30.75
2022-11-05T09:31:00.283Z,34.35
2022-11-05T09:33:44.713Z,32.90
2022-11-05T09:36:26.772Z,40.88
2022-11-05T09:39:07.062Z,25.67
2022-11-05T09:41:44.986Z,23.23
2022-11-05T09:44:23.411Z,21.15
2022-11-05T09:53:09.462Z,23.35
2022-11-05T09:55:44.603Z,23.77
2022-11-05T09:58:44.707Z,30.77
2022-11-05T10:01:24.003Z,30.40
2022-11-05T10:04:29.761Z,22.25
2022-11-05T10:07:16.753Z,20.45
2022-11-05T10:09:50.031Z,22.60
2022-11-05T10:12:44.010Z,20.55
2022-11-05T10:15:19.633Z,25.17
2022-11-05T10:20:35.193Z,19.77
2022-11-05T10:23:21.185Z,21.30
2022-11-05T10:25:55.236Z,22.13
2022-11-05T10:28:35.671Z,21.08
2022-11-05T10:31:07.921Z,20.90
2022-11-05T10:33:43.521Z,20.38
2022-11-05T10:36:35.401Z,19.33
2022-11-05T10:39:12.121Z,23.85
2022-11-05T10:42:00.683Z,23.50
2022-11-05T10:44:49.274Z,25.25
2022-11-05T10:47:30.997Z,24.63
2022-11-05T10:49:59.881Z,30.98
2022-11-05T10:52:28.379Z,26.38
2022-11-05T10:55:00.229Z,21.55
2022-11-05T10:57:29.040Z,19.83
2022-11-05T11:00:28.483Z,19.42
2022-11-05T11:03:01.700Z,18.63
2022-11-05T11:05:33.907Z,18.50
2022-11-05T11:08:20.030Z,18.88
2022-11-05T11:10:56.971Z,19.33
2022-11-05T11:13:27.688Z,16.40
2022-11-05T11:16:35.045Z,18.23
2022-11-05T11:19:05.511Z,16.52
2022-11-05T11:21:34.527Z,20.88
2022-11-05T11:24:08.273Z,13.07
2022-11-05T11:26:39.268Z,13.98
2022-11-05T11:29:12.898Z,14.00
2022-11-05T11:31:49.779Z,13.80
2022-11-05T11:34:41.796Z,12.52
2022-11-05T11:37:29.662Z,12.73
2022-11-05T11:40:06.358Z,14.27
2022-11-05T11:42:36.800Z,14.30
2022-11-05T11:45:08.267Z,13.90
2022-11-05T11:47:47.451Z,13.98
2022-11-05T11:50:42.850Z,13.43
2022-11-05T11:53:23.477Z,20.45
2022-11-05T11:56:13.553Z,12.93
2022-11-05T11:59:10.022Z,12.77
2022-11-05T12:01:54.465Z,12.40
2022-11-05T12:04:39.832Z,14.18
2022-11-05T12:07:34.275Z,14.88
2022-11-05T12:10:18.090Z,12.95
2022-11-05T12:12:55.624Z,13.63
2022-11-05T12:18:35.957Z,16.13
2022-11-05T12:21:15.371Z,14.15
2022-11-05T12:23:53.643Z,13.90
2022-11-05T12:26:25.078Z,14.82
2022-11-05T12:29:19.334Z,25.65
2022-11-05T12:32:08.703Z,15.35
2022-11-05T12:34:50.366Z,12.70
2022-11-05T12:37:37.559Z,13.48
2022-11-05T12:40:30.230Z,13.15
2022-11-05T12:45:59.500Z,17.90
2022-11-05T12:48:54.975Z,143.68
2022-11-05T12:54:40.340Z,25.92
2022-11-05T12:57:13.029Z,27.02
2022-11-05T13:02:27.555Z,13.27
2022-11-05T13:05:17.121Z,11.77
2022-11-05T13:07:58.839Z,12.48
2022-11-05T13:10:36.583Z,11.73
2022-11-05T13:13:19.839Z,15.02
2022-11-05T13:15:51.699Z,43.35
2022-11-05T13:18:28.084Z,22.55
2022-11-05T13:20:59.226Z,14.20
2022-11-05T13:23:38.971Z,14.45
2022-11-05T13:26:29.809Z,27.55
2022-11-05T13:29:04.924Z,28.33
2022-11-05T13:31:39.096Z,28.80
2022-11-05T13:34:11.451Z,20.38
2022-11-05T13:37:07.955Z,16.67
2022-11-05T13:39:41.666Z,16.33
2022-11-05T13:42:29.787Z,17.23
2022-11-05T13:45:08.152Z,16.08
2022-11-05T13:47:52.271Z,11.65
2022-11-05T13:50:25.320Z,14.07
2022-11-05T13:53:09.510Z,10.23
2022-11-05T13:55:59.226Z,12.77
2022-11-05T13:58:47.761Z,8.50
2022-11-05T14:01:16.198Z,10.60
2022-11-05T14:03:52.224Z,16.90
2022-11-05T14:06:32.693Z,6.57
2022-11-05T14:09:10.037Z,5.57
2022-11-05T14:11:42.785Z,32.67
2022-11-05T14:14:19.383Z,13.18
2022-11-05T14:16:48.286Z,4.97
2022-11-05T14:19:21.542Z,11.20
2022-11-05T14:21:53.294Z,7.28
2022-11-05T14:24:26.733Z,5.03
2022-11-05T14:27:01.341Z,20.63
2022-11-05T14:30:16.597Z,14.38
2022-11-05T14:32:50.912Z,10.52
2022-11-05T14:37:59.023Z,84.18
2022-11-05T14:40:40.495Z,19.90
2022-11-05T14:43:21.159Z,63.13
2022-11-05T14:45:54.520Z,93.90
2022-11-05T14:48:24.027Z,27.55
2022-11-05T14:50:53.318Z,28.85
2022-11-05T14:53:22.356Z,25.25
2022-11-05T14:55:59.909Z,15.77
2022-11-05T14:58:33.206Z,65.80
2022-11-05T15:01:04.641Z,38.40
2022-11-05T15:04:01.003Z,25.83
2022-11-05T15:06:33.660Z,25.77
2022-11-05T15:09:22.740Z,38.95
2022-11-05T15:11:58.690Z,24.00
2022-11-05T15:14:31.777Z,45.80
2022-11-05T15:17:10.915Z,39.95
2022-11-05T15:19:41.770Z,31.90
2022-11-05T15:22:31.234Z,38.90
2022-11-05T15:25:02.555Z,35.67
2022-11-05T15:27:41.475Z,27.05
2022-11-05T15:30:17.992Z,58.83
2022-11-05T15:32:47.036Z,50.15
2022-11-05T15:35:27.202Z,48.83
2022-11-05T15:38:02.394Z,36.35
2022-11-05T15:43:10.901Z,58.88
2022-11-05T15:45:40.595Z,64.43
2022-11-05T15:48:16.147Z,53.17
2022-11-05T15:50:48.089Z,50.20
2022-11-05T15:54:01.800Z,60.30
2022-11-05T15:56:50.898Z,62.38
2022-11-05T15:59:26.351Z,52.78
2022-11-05T16:02:09.221Z,53.30
2022-11-05T16:04:38.599Z,57.97
2022-11-05T16:07:12.482Z,45.58
2022-11-05T16:09:53.141Z,57.40
2022-11-05T16:12:26.003Z,45.22
2022-11-05T16:15:00.018Z,57.13
2022-11-05T16:17:31.379Z,69.72
2022-11-05T16:20:11.112Z,72.32
2022-11-05T16:23:12.708Z,52.83
2022-11-05T16:25:49.143Z,54.30
2022-11-05T16:28:23.749Z,64.70
2022-11-05T16:31:05.391Z,68.90
2022-11-05T16:33:40.450Z,63.65
2022-11-05T16:36:09.737Z,51.65
2022-11-05T16:38:38.282Z,46.55
2022-11-05T16:41:08.177Z,45.15
2022-11-05T16:43:37.145Z,35.42
2022-11-05T16:46:07.697Z,23.40
2022-11-05T16:48:36.937Z,26.15
2022-11-05T16:51:05.809Z,25.42
2022-11-05T16:53:35.302Z,20.83
2022-11-05T16:56:06.067Z,23.70
2022-11-05T16:58:35.043Z,15.57
2022-11-05T17:01:07.643Z,20.63
2022-11-05T17:03:37.278Z,16.65
2022-11-05T17:06:06.898Z,19.13
2022-11-05T17:08:37.276Z,31.15
2022-11-05T17:13:59.469Z,26.73
2022-11-05T17:16:33.359Z,32.58
2022-11-05T17:19:02.585Z,29.95
2022-11-05T17:21:31.389Z,38.65
2022-11-05T17:24:00.854Z,27.65
2022-11-05T17:26:30.974Z,38.83
2022-11-05T17:28:59.325Z,30.85
2022-11-05T17:31:30.239Z,39.67
2022-11-05T17:33:59.619Z,59.90
2022-11-05T17:36:34.906Z,45.53
2022-11-05T17:39:04.266Z,36.55
2022-11-05T17:41:36.548Z,28.38
2022-11-05T17:44:06.486Z,50.40
2022-11-05T17:46:35.684Z,24.23
2022-11-05T17:49:04.081Z,17.63
2022-11-05T17:51:34.742Z,12.43
2022-11-05T17:54:06.114Z,13.05
2022-11-05T17:56:46.008Z,39.60
2022-11-05T17:59:15.053Z,30.10
2022-11-05T18:01:46.287Z,14.25
2022-11-05T18:04:19.414Z,14.45
2022-11-05T18:07:58.550Z,17.00
2022-11-05T18:10:28.090Z,18.40
2022-11-05T18:12:58.871Z,22.35
2022-11-05T18:15:31.852Z,16.63
2022-11-05T18:18:29.694Z,23.45
2022-11-05T18:21:21.252Z,24.70
2022-11-05T18:23:52.640Z,16.27
2022-11-05T18:26:28.352Z,64.43
2022-11-05T18:28:59.034Z,27.88
2022-11-05T18:34:04.587Z,12.35
2022-11-05T18:36:34.269Z,17.35
2022-11-05T18:39:05.546Z,17.38
2022-11-05T18:41:35.900Z,16.75
2022-11-05T18:44:06.040Z,14.52
2022-11-05T18:46:57.144Z,16.38
2022-11-05T18:49:26.290Z,14.02
2022-11-05T18:51:58.306Z,12.77
2022-11-05T18:54:26.783Z,12.77
2022-11-05T18:56:56.245Z,16.40
2022-11-05T18:59:41.190Z,15.02
2022-11-05T19:02:13.819Z,15.30
2022-11-05T19:05:06.729Z,18.77
2022-11-05T19:07:38.942Z,30.38
2022-11-05T19:10:10.864Z,24.10
2022-11-05T19:12:41.786Z,29.45
2022-11-05T19:15:12.545Z,28.75
2022-11-05T19:17:43.339Z,26.52
2022-11-05T19:20:15.116Z,24.60
2022-11-05T19:22:48.692Z,25.83
2022-11-05T19:30:54.252Z,31.25
2022-11-05T19:33:27.790Z,26.00
2022-11-05T19:39:14.394Z,34.38
2022-11-05T19:41:43.606Z,45.70
2022-11-05T19:44:14.440Z,40.55
2022-11-05T19:46:44.144Z,36.45
2022-11-05T19:49:18.511Z,32.67
2022-11-05T19:51:48.003Z,34.00
2022-11-05T19:54:19.083Z,67.90
2022-11-05T19:57:08.766Z,138.30
2022-11-05T19:59:42.379Z,60.90
2022-11-05T20:02:16.487Z,140.55
2022-11-05T20:04:55.927Z,211.18
2022-11-05T20:07:25.973Z,100.82
2022-11-05T20:10:02.957Z,54.53
2022-11-05T20:12:42.268Z,33.97
2022-11-05T20:15:21.620Z,25.67
2022-11-05T20:17:54.227Z,60.05
2022-11-05T20:20:28.276Z,42.28
2022-11-05T20:23:20.609Z,20.17
2022-11-05T20:25:49.804Z,19.80
2022-11-05T20:28:22.632Z,15.90
2022-11-05T20:30:52.094Z,19.20
2022-11-05T20:33:20.504Z,21.15
2022-11-05T20:35:50.500Z,22.60
2022-11-05T20:38:18.904Z,28.58
2022-11-05T20:40:48.991Z,35.35
2022-11-05T20:43:17.639Z,34.42
2022-11-05T20:45:47.085Z,43.78
2022-11-05T20:48:16.643Z,45.65
2022-11-05T20:50:48.304Z,49.38
2022-11-05T20:53:17.093Z,62.25
2022-11-05T21:00:07.375Z,36.58
2022-11-05T21:02:46.885Z,31.90
2022-11-05T21:05:16.699Z,30.42
2022-11-05T21:07:50.051Z,28.40
2022-11-05T21:10:31.687Z,31.05
2022-11-05T21:13:04.459Z,27.15
2022-11-05T21:18:39.677Z,29.10
2022-11-05T21:21:11.249Z,25.75
2022-11-05T21:23:43.842Z,24.23
2022-11-05T21:26:15.233Z,25.42
2022-11-05T21:28:48.281Z,24.13
2022-11-05T21:31:23.076Z,25.75
2022-11-05T21:33:55.324Z,22.02
2022-11-05T21:36:27.531Z,23.95
2022-11-05T21:38:57.914Z,24.40
2022-11-05T21:41:27.956Z,21.92
2022-11-05T21:43:57.280Z,20.58
2022-11-05T21:46:27.951Z,20.45
2022-11-05T21:48:58.097Z,17.35
2022-11-05T21:51:54.069Z,17.23
2022-11-05T21:54:41.611Z,20.00
2022-11-05T21:57:33.162Z,22.48
2022-11-05T22:00:17.502Z,22.00
2022-11-05T22:02:48.379Z,19.52
2022-11-05T22:05:23.383Z,18.23
2022-11-05T22:07:54.083Z,19.27
2022-11-05T22:10:33.259Z,22.95
2022-11-05T22:13:26.915Z,28.02
2022-11-05T22:15:58.066Z,40.97
2022-11-05T22:18:26.936Z,24.17
2022-11-05T22:20:56.377Z,29.83
2022-11-05T22:23:29.971Z,38.25
2022-11-05T22:26:02.980Z,28.38
2022-11-05T22:28:31.309Z,22.20
2022-11-05T22:31:00.441Z,21.67
2022-11-05T22:33:30.137Z,20.80
2022-11-05T22:36:00.066Z,19.98
2022-11-05T22:38:28.865Z,23.73
2022-11-05T22:40:59.518Z,18.52
2022-11-05T22:43:27.596Z,15.50
2022-11-05T22:46:10.019Z,14.55
2022-11-05T22:48:39.900Z,14.40
2022-11-05T22:51:14.478Z,12.13
2022-11-05T22:53:51.573Z,11.75
2022-11-05T22:56:24.043Z,12.00
2022-11-05T22:58:55.646Z,12.18
2022-11-05T23:01:29.176Z,13.32
2022-11-05T23:04:00.026Z,15.10
2022-11-05T23:06:48.965Z,12.70
2022-11-05T23:09:38.554Z,15.90
2022-11-05T23:14:55.345Z,18.48
2022-11-05T23:17:43.951Z,16.63
2022-11-05T23:20:18.006Z,16.55
2022-11-05T23:23:07.516Z,15.80
2022-11-05T23:25:36.681Z,16.40
2022-11-05T23:28:08.114Z,20.15
2022-11-05T23:31:01.198Z,20.63
2022-11-05T23:33:34.997Z,22.60
2022-11-05T23:36:28.469Z,18.60
2022-11-05T23:38:59.607Z,14.88
2022-11-05T23:41:53.970Z,15.48
2022-11-05T23:44:42.594Z,13.73
2022-11-05T23:47:39.380Z,14.27
2022-11-05T23:50:11.186Z,13.43
2022-11-05T23:52:48.506Z,16.00
2022-11-05T23:55:19.302Z,23.95
2022-11-05T23:57:48.155Z,30.40
